Hlavní strana
METAR-TAF:

METAR-TAF

Letiště :

Vardø, Norsko

zeměpisná šířka: 70-21N, zeměpisná délka: 031-03E, výška: 12 m

Aktuální stav počasí

Zpráva byla vytvořena před 10 minutami, v 13:50 UTC
Východní vítr 19 kt
Teplota 0°C
Vlhkost vzduchu 64%
Tlak 1008 hPa
Viditelnost 10 km a více
Skoro jasno ve výšce 2200 ft
Oblačno až skoro zataženo ve výšce 2800 ft

METAR: ENSS 181350Z 09019KT 9999 FEW022 BKN028 M00/M06 Q1008 RMK WIND 500FT 06025G38KT

Čas: 15:00 (14:00 UTC)


TAF: chybějící

Stav a předpovědi počasí z více než 4 000 letišť (zprávy METAR a TAF).

Červené a žluté tečky na mapě představují dostupné meteorologické stanice.

Když kurzor umístíte na tečku, zobrazí se název stanice.

Pak kliknutím zobrazíte stav a předpověď počasí.

Chcete-li změnit mapu, kliknutím na zelené tlačítko se znaménkem +mapu přiblížíte, kliknutím na zelené tlačítko se znaménkem – mapu oddálíte a kliknutím na zelené šipky přejdete na sousední mapy.


METAR-TAF: